createdAt,value
2023-05-05T00:01:03.265Z,10.11
2023-05-05T00:03:31.459Z,9.60
2023-05-05T00:05:59.731Z,9.16
2023-05-05T00:08:28.640Z,8.92
2023-05-05T00:10:57.672Z,10.09
2023-05-05T00:13:26.069Z,11.65
2023-05-05T00:15:54.343Z,12.25
2023-05-05T00:18:22.662Z,12.45
2023-05-05T00:20:50.976Z,12.40
2023-05-05T00:23:19.480Z,11.62
2023-05-05T00:25:47.509Z,10.75
2023-05-05T00:28:15.476Z,10.08
2023-05-05T00:30:43.682Z,9.56
2023-05-05T00:33:12.470Z,9.15
2023-05-05T00:35:40.768Z,8.82
2023-05-05T00:38:09.504Z,8.48
2023-05-05T00:40:38.160Z,8.17
2023-05-05T00:43:06.268Z,7.92
2023-05-05T00:45:37.046Z,7.70
2023-05-05T00:48:06.115Z,7.52
2023-05-05T00:50:34.909Z,7.37
2023-05-05T00:53:06.241Z,7.97
2023-05-05T00:55:35.041Z,9.24
2023-05-05T00:58:04.448Z,9.96
2023-05-05T01:00:32.873Z,10.46
2023-05-05T01:03:01.620Z,10.98
2023-05-05T01:05:47.396Z,11.28
2023-05-05T01:08:19.771Z,11.49
2023-05-05T01:10:58.920Z,11.67
2023-05-05T01:13:55.433Z,11.83
2023-05-05T01:16:31.355Z,11.98
2023-05-05T01:19:50.069Z,12.10
2023-05-05T01:22:20.946Z,12.23
2023-05-05T01:25:09.964Z,11.68
2023-05-05T01:28:03.105Z,10.68
2023-05-05T01:31:01.790Z,9.81
2023-05-05T01:33:36.178Z,9.14
2023-05-05T01:36:08.461Z,8.72
2023-05-05T01:38:42.592Z,8.37
2023-05-05T01:41:17.700Z,8.07
2023-05-05T01:43:47.942Z,7.78
2023-05-05T01:46:16.900Z,7.54
2023-05-05T01:48:45.211Z,7.33
2023-05-05T01:51:13.387Z,7.15
2023-05-05T01:53:41.770Z,7.00
2023-05-05T01:56:10.458Z,6.95
2023-05-05T01:58:38.710Z,7.83
2023-05-05T02:01:06.789Z,8.93
2023-05-05T02:03:34.806Z,9.61
2023-05-05T02:06:02.932Z,10.05
2023-05-05T02:08:30.900Z,10.38
2023-05-05T02:10:59.081Z,10.69
2023-05-05T02:13:27.260Z,10.93
2023-05-05T02:15:55.220Z,11.14
2023-05-05T02:18:23.328Z,11.37
2023-05-05T02:20:53.305Z,11.58
2023-05-05T02:23:21.548Z,11.75
2023-05-05T02:25:51.121Z,11.90
2023-05-05T02:28:22.596Z,11.53
2023-05-05T02:30:58.198Z,10.60
2023-05-05T02:33:27.586Z,9.75
2023-05-05T02:35:55.868Z,9.14
2023-05-05T02:38:28.086Z,8.64
2023-05-05T02:40:57.332Z,8.21
2023-05-05T02:43:25.358Z,7.89
2023-05-05T02:45:53.643Z,7.63
2023-05-05T02:48:22.261Z,7.40
2023-05-05T02:50:51.148Z,7.19
2023-05-05T02:53:29.555Z,6.99
2023-05-05T02:56:08.510Z,6.85
2023-05-05T02:58:54.428Z,6.78
2023-05-05T03:01:46.832Z,7.60
2023-05-05T03:04:39.464Z,8.87
2023-05-05T03:07:13.304Z,9.67
2023-05-05T03:10:14.029Z,10.01
2023-05-05T03:13:03.911Z,10.32
2023-05-05T03:15:48.308Z,10.58
2023-05-05T03:18:17.802Z,10.84
2023-05-05T03:20:49.074Z,11.01
2023-05-05T03:23:23.010Z,11.17
2023-05-05T03:25:55.077Z,11.35
2023-05-05T03:28:35.716Z,11.53
2023-05-05T03:31:08.503Z,11.65
2023-05-05T03:33:37.796Z,11.02
2023-05-05T03:36:06.403Z,10.11
2023-05-05T03:38:34.702Z,9.38
2023-05-05T03:41:06.042Z,8.84
2023-05-05T03:43:34.332Z,8.43
2023-05-05T03:46:02.896Z,8.14
2023-05-05T03:48:31.589Z,7.96
2023-05-05T03:51:00.434Z,7.84
2023-05-05T03:53:29.333Z,7.86
2023-05-05T03:55:57.395Z,8.63
2023-05-05T03:58:25.711Z,9.51
2023-05-05T04:00:53.720Z,10.22
2023-05-05T04:03:22.704Z,10.82
2023-05-05T04:05:51.519Z,11.32
2023-05-05T04:08:19.739Z,11.73
2023-05-05T04:10:48.077Z,12.16
2023-05-05T04:13:17.128Z,12.59
2023-05-05T04:15:46.551Z,13.01
2023-05-05T04:18:15.263Z,13.34
2023-05-05T04:20:43.625Z,13.02
2023-05-05T04:23:12.011Z,12.25
2023-05-05T04:25:40.898Z,11.66
2023-05-05T04:28:09.006Z,11.28
2023-05-05T04:30:37.756Z,11.00
2023-05-05T04:33:05.838Z,10.87
2023-05-05T04:35:34.241Z,10.86
2023-05-05T04:38:02.486Z,10.95
2023-05-05T04:40:30.544Z,11.18
2023-05-05T04:42:58.828Z,11.54
2023-05-05T04:45:27.313Z,11.99
2023-05-05T04:47:56.839Z,13.04
2023-05-05T04:50:24.851Z,14.29
2023-05-05T04:52:53.193Z,15.18
2023-05-05T04:55:21.902Z,15.25
2023-05-05T04:57:49.955Z,15.03
2023-05-05T05:00:18.396Z,14.93
2023-05-05T05:02:46.557Z,14.97
2023-05-05T05:05:14.882Z,15.00
2023-05-05T05:07:43.017Z,15.02
2023-05-05T05:10:11.331Z,15.03
2023-05-05T05:12:39.812Z,15.08
2023-05-05T05:15:09.185Z,15.22
2023-05-05T05:17:37.391Z,15.38
2023-05-05T05:20:08.055Z,15.62
2023-05-05T05:22:38.998Z,15.98
2023-05-05T05:25:10.415Z,16.51
2023-05-05T05:27:38.723Z,17.13
2023-05-05T05:30:09.869Z,17.79
2023-05-05T05:32:38.315Z,18.36
2023-05-05T05:35:07.431Z,19.03
2023-05-05T05:37:35.937Z,19.86
2023-05-05T05:40:05.889Z,20.77
2023-05-05T05:42:34.431Z,21.70
2023-05-05T05:45:03.938Z,22.51
2023-05-05T05:47:32.726Z,23.14
2023-05-05T05:50:01.716Z,23.70
2023-05-05T05:52:31.554Z,24.27
2023-05-05T05:54:59.754Z,24.94
2023-05-05T05:57:28.087Z,25.65
2023-05-05T05:59:56.670Z,26.41
2023-05-05T06:02:27.308Z,27.03
2023-05-05T06:04:56.281Z,27.42
2023-05-05T06:07:24.516Z,27.80
2023-05-05T06:09:52.521Z,28.11
2023-05-05T06:12:21.209Z,28.44
2023-05-05T06:14:49.622Z,28.45
2023-05-05T06:17:17.716Z,28.38
2023-05-05T06:19:45.686Z,28.36
2023-05-05T06:22:13.717Z,28.52
2023-05-05T06:24:42.242Z,28.79
2023-05-05T06:27:10.613Z,29.05
2023-05-05T06:29:38.709Z,29.37
2023-05-05T06:32:08.424Z,29.66
2023-05-05T06:34:36.440Z,29.96
2023-05-05T06:37:04.463Z,30.21
2023-05-05T06:39:32.524Z,30.47
2023-05-05T06:42:00.623Z,30.65
2023-05-05T06:44:28.739Z,30.81
2023-05-05T06:46:57.261Z,31.14
2023-05-05T06:49:25.340Z,31.39
2023-05-05T06:51:53.411Z,31.33
2023-05-05T06:54:21.528Z,31.07
2023-05-05T06:56:49.565Z,30.85
2023-05-05T06:59:17.568Z,30.90
2023-05-05T07:01:45.590Z,31.11
2023-05-05T07:04:13.723Z,31.17
2023-05-05T07:06:41.841Z,31.09
2023-05-05T07:09:09.970Z,31.10
2023-05-05T07:11:38.077Z,30.86
2023-05-05T07:14:06.464Z,30.57
2023-05-05T07:16:37.249Z,30.78
2023-05-05T07:19:08.237Z,31.10
2023-05-05T07:21:36.831Z,31.14
2023-05-05T07:24:05.604Z,30.36
2023-05-05T07:26:33.794Z,29.66
2023-05-05T07:29:02.713Z,29.50
2023-05-05T07:31:31.063Z,29.70
2023-05-05T07:33:59.002Z,29.93
2023-05-05T07:36:28.032Z,30.02
2023-05-05T07:38:56.299Z,30.41
2023-05-05T07:41:24.273Z,30.57
2023-05-05T07:43:52.415Z,30.61
2023-05-05T07:46:20.500Z,30.91
2023-05-05T07:48:48.634Z,31.41
2023-05-05T07:51:17.042Z,31.72
2023-05-05T07:53:45.278Z,31.95
2023-05-05T07:56:13.360Z,32.06
2023-05-05T07:58:42.288Z,31.71
2023-05-05T08:01:12.824Z,31.06
2023-05-05T08:03:41.074Z,30.55
2023-05-05T08:06:09.631Z,30.09
2023-05-05T08:08:38.097Z,29.92
2023-05-05T08:11:06.812Z,29.67
2023-05-05T08:13:35.206Z,29.50
2023-05-05T08:16:03.646Z,29.34
2023-05-05T08:18:31.853Z,29.26
2023-05-05T08:20:59.862Z,29.09
2023-05-05T08:23:27.940Z,28.19
2023-05-05T08:25:56.038Z,26.86
2023-05-05T08:28:24.082Z,25.84
2023-05-05T08:30:52.265Z,25.03
2023-05-05T08:33:20.300Z,24.45
2023-05-05T08:35:49.379Z,24.07
2023-05-05T08:38:19.126Z,23.87
2023-05-05T08:40:47.339Z,23.78
2023-05-05T08:43:15.982Z,23.68
2023-05-05T08:45:44.102Z,23.49
2023-05-05T08:48:13.076Z,23.34
2023-05-05T08:50:41.170Z,23.31
2023-05-05T08:53:10.864Z,23.16
2023-05-05T08:55:51.244Z,22.53
2023-05-05T08:58:19.822Z,22.15
2023-05-05T09:00:47.915Z,21.68
2023-05-05T09:03:16.507Z,21.35
2023-05-05T09:05:44.802Z,21.08
2023-05-05T09:08:13.097Z,20.79
2023-05-05T09:10:41.945Z,20.72
2023-05-05T09:13:09.930Z,20.77
2023-05-05T09:15:39.203Z,20.80
2023-05-05T09:18:12.258Z,20.92
2023-05-05T09:20:41.135Z,21.09
2023-05-05T09:23:16.570Z,21.28
2023-05-05T09:25:47.909Z,21.55
2023-05-05T09:28:17.800Z,21.26
2023-05-05T09:30:46.917Z,21.04
2023-05-05T09:33:15.848Z,21.03
2023-05-05T09:35:54.684Z,20.87
2023-05-05T09:38:24.081Z,20.74
2023-05-05T09:40:53.428Z,20.64
2023-05-05T09:43:23.005Z,20.64
2023-05-05T09:45:51.249Z,20.62
2023-05-05T09:48:30.255Z,20.65
2023-05-05T09:50:58.850Z,20.90
2023-05-05T09:53:39.228Z,21.11
2023-05-05T09:56:08.277Z,21.40
2023-05-05T09:58:36.575Z,21.66
2023-05-05T10:01:04.797Z,21.74
2023-05-05T10:03:33.093Z,21.78
2023-05-05T10:06:02.271Z,21.84
2023-05-05T10:08:31.628Z,21.77
2023-05-05T10:11:07.361Z,21.75
2023-05-05T10:13:40.274Z,21.78
2023-05-05T10:16:09.277Z,21.70
2023-05-05T10:18:37.375Z,21.70
2023-05-05T10:21:05.820Z,21.69
2023-05-05T10:23:43.958Z,21.83
2023-05-05T10:26:14.152Z,22.07
2023-05-05T10:28:50.949Z,22.35
2023-05-05T10:31:32.925Z,22.58
2023-05-05T10:34:06.803Z,22.80
2023-05-05T10:36:35.174Z,22.40
2023-05-05T10:39:03.546Z,21.92
2023-05-05T10:41:33.448Z,21.51
2023-05-05T10:44:03.686Z,21.24
2023-05-05T10:46:32.735Z,20.82
2023-05-05T10:49:19.776Z,20.55
2023-05-05T10:52:09.660Z,20.62
2023-05-05T10:54:49.885Z,20.79
2023-05-05T10:57:19.237Z,20.74
2023-05-05T10:59:47.748Z,20.70
2023-05-05T11:02:24.839Z,20.84
2023-05-05T11:05:22.875Z,21.09
2023-05-05T11:07:51.694Z,21.33
2023-05-05T11:10:20.892Z,21.47
2023-05-05T11:12:52.572Z,21.53
2023-05-05T11:15:26.895Z,21.46
2023-05-05T11:17:59.534Z,21.55
2023-05-05T11:20:39.937Z,21.69
2023-05-05T11:23:08.245Z,21.45
2023-05-05T11:25:41.189Z,21.13
2023-05-05T11:28:21.034Z,20.87
2023-05-05T11:30:55.352Z,20.82
2023-05-05T11:33:29.245Z,20.83
2023-05-05T11:35:59.146Z,20.83
2023-05-05T11:38:36.145Z,21.10
2023-05-05T11:41:10.306Z,21.17
2023-05-05T11:43:39.182Z,21.35
2023-05-05T11:46:14.638Z,21.63
2023-05-05T11:48:53.205Z,21.74
2023-05-05T11:51:22.315Z,21.49
2023-05-05T11:53:50.267Z,21.20
2023-05-05T11:56:22.462Z,21.04
2023-05-05T11:59:10.119Z,20.93
2023-05-05T12:01:41.834Z,20.70
2023-05-05T12:04:13.974Z,20.46
2023-05-05T12:06:43.102Z,20.37
2023-05-05T12:09:20.368Z,20.19
2023-05-05T12:11:53.156Z,20.03
2023-05-05T12:14:21.676Z,20.18
2023-05-05T12:17:08.756Z,20.53
2023-05-05T12:19:36.788Z,20.85
2023-05-05T12:22:05.332Z,21.16
2023-05-05T12:24:33.454Z,21.50
2023-05-05T12:27:11.382Z,21.77
2023-05-05T12:29:39.454Z,21.75
2023-05-05T12:32:07.548Z,21.29
2023-05-05T12:34:35.900Z,21.00
2023-05-05T12:37:04.215Z,20.52
2023-05-05T12:39:38.593Z,20.19
2023-05-05T12:42:06.713Z,19.99
2023-05-05T12:44:36.431Z,19.94
2023-05-05T12:47:04.965Z,20.14
2023-05-05T12:49:48.808Z,20.44
2023-05-05T12:52:17.077Z,20.69
2023-05-05T12:54:54.849Z,20.86
2023-05-05T12:57:23.542Z,21.22
2023-05-05T12:59:52.901Z,21.37
2023-05-05T13:02:21.468Z,21.42
2023-05-05T13:04:51.766Z,21.33
2023-05-05T13:07:22.621Z,21.11
2023-05-05T13:09:51.000Z,21.00
2023-05-05T13:12:19.209Z,20.73
2023-05-05T13:14:47.502Z,20.48
2023-05-05T13:17:15.573Z,20.22
2023-05-05T13:19:46.533Z,19.94
2023-05-05T13:22:14.795Z,19.86
2023-05-05T13:24:51.756Z,19.73
2023-05-05T13:27:21.362Z,19.69
2023-05-05T13:29:49.499Z,19.66
2023-05-05T13:32:17.440Z,19.66
2023-05-05T13:34:45.589Z,19.88
2023-05-05T13:37:13.858Z,20.22
2023-05-05T13:39:41.949Z,20.54
2023-05-05T13:42:10.186Z,20.70
2023-05-05T13:44:38.421Z,20.86
2023-05-05T13:47:06.552Z,20.80
2023-05-05T13:49:35.956Z,20.68
2023-05-05T13:52:04.052Z,20.65
2023-05-05T13:54:32.061Z,20.61
2023-05-05T13:57:00.288Z,20.61
2023-05-05T13:59:28.441Z,20.70
2023-05-05T14:01:56.623Z,20.84
2023-05-05T14:04:24.866Z,20.97
2023-05-05T14:06:53.592Z,21.08
2023-05-05T14:09:21.749Z,21.23
2023-05-05T14:11:50.028Z,21.48
2023-05-05T14:14:18.196Z,21.51
2023-05-05T14:16:48.478Z,21.51
2023-05-05T14:19:18.126Z,21.62
2023-05-05T14:21:46.380Z,21.70
2023-05-05T14:24:14.488Z,21.67
2023-05-05T14:26:42.518Z,21.48
2023-05-05T14:29:10.620Z,21.31
2023-05-05T14:31:38.660Z,21.24
2023-05-05T14:34:06.757Z,21.07
2023-05-05T14:36:34.927Z,20.65
2023-05-05T14:39:03.116Z,20.25
2023-05-05T14:41:31.211Z,20.00
2023-05-05T14:43:59.329Z,19.87
2023-05-05T14:46:27.658Z,19.77
2023-05-05T14:48:55.817Z,19.71
2023-05-05T14:51:23.867Z,19.77
2023-05-05T14:53:52.175Z,20.03
2023-05-05T14:56:22.742Z,20.09
2023-05-05T14:58:50.894Z,20.19
2023-05-05T15:01:20.956Z,20.13
2023-05-05T15:03:49.136Z,20.11
2023-05-05T15:06:17.311Z,20.17
2023-05-05T15:08:45.590Z,20.34
2023-05-05T15:11:14.064Z,20.41
2023-05-05T15:13:42.128Z,20.13
2023-05-05T15:16:10.383Z,20.00
2023-05-05T15:18:38.521Z,19.78
2023-05-05T15:21:06.828Z,19.54
2023-05-05T15:23:35.025Z,19.35
2023-05-05T15:26:03.512Z,19.12
2023-05-05T15:28:31.678Z,18.87
2023-05-05T15:31:02.919Z,18.75
2023-05-05T15:33:31.199Z,18.68
2023-05-05T15:35:59.681Z,18.61
2023-05-05T15:38:29.205Z,18.56
2023-05-05T15:40:57.456Z,18.51
2023-05-05T15:43:26.048Z,18.49
2023-05-05T15:45:54.213Z,18.49
2023-05-05T15:48:22.487Z,18.50
2023-05-05T15:50:50.578Z,18.48
2023-05-05T15:53:18.842Z,18.61
2023-05-05T15:55:47.025Z,18.58
2023-05-05T15:58:15.199Z,18.66
2023-05-05T16:00:43.357Z,18.75
2023-05-05T16:03:11.772Z,18.88
2023-05-05T16:05:39.932Z,19.00
2023-05-05T16:08:10.448Z,18.94
2023-05-05T16:10:38.412Z,18.85
2023-05-05T16:13:06.446Z,18.76
2023-05-05T16:15:35.688Z,18.66
2023-05-05T16:18:04.158Z,18.43
2023-05-05T16:20:32.304Z,18.15
2023-05-05T16:23:00.395Z,17.96
2023-05-05T16:25:28.387Z,17.82
2023-05-05T16:27:57.629Z,17.64
2023-05-05T16:30:26.234Z,17.50
2023-05-05T16:32:54.814Z,17.35
2023-05-05T16:35:23.552Z,17.32
2023-05-05T16:37:52.569Z,17.31
2023-05-05T16:40:20.695Z,17.26
2023-05-05T16:42:48.705Z,17.22
2023-05-05T16:45:16.990Z,17.15
2023-05-05T16:47:45.080Z,17.11
2023-05-05T16:50:13.318Z,17.03
2023-05-05T16:52:41.387Z,16.93
2023-05-05T16:55:09.779Z,16.87
2023-05-05T16:57:37.961Z,16.82
2023-05-05T17:00:07.123Z,16.77
2023-05-05T17:02:35.899Z,16.69
2023-05-05T17:05:04.321Z,16.59
2023-05-05T17:07:32.408Z,16.54
2023-05-05T17:10:00.359Z,16.49
2023-05-05T17:12:28.555Z,16.45
2023-05-05T17:14:56.608Z,16.43
2023-05-05T17:17:24.675Z,16.40
2023-05-05T17:19:52.796Z,16.36
2023-05-05T17:22:20.822Z,16.34
2023-05-05T17:24:48.898Z,16.30
2023-05-05T17:27:17.296Z,16.27
2023-05-05T17:29:45.227Z,16.22
2023-05-05T17:32:13.328Z,16.16
2023-05-05T17:34:41.522Z,16.09
2023-05-05T17:37:09.820Z,16.01
2023-05-05T17:39:37.966Z,15.89
2023-05-05T17:42:06.064Z,15.74
2023-05-05T17:44:34.171Z,15.58
2023-05-05T17:47:04.010Z,15.40
2023-05-05T17:49:32.040Z,15.24
2023-05-05T17:52:00.481Z,15.10
2023-05-05T17:54:28.474Z,15.00
2023-05-05T17:56:56.638Z,14.88
2023-05-05T17:59:24.804Z,14.77
2023-05-05T18:01:52.781Z,14.65
2023-05-05T18:04:20.899Z,14.52
2023-05-05T18:06:48.940Z,14.41
2023-05-05T18:09:17.809Z,14.35
2023-05-05T18:11:45.937Z,14.30
2023-05-05T18:14:13.995Z,14.25
2023-05-05T18:16:47.755Z,14.19
2023-05-05T18:19:18.155Z,14.11
2023-05-05T18:21:46.381Z,14.04
2023-05-05T18:24:19.949Z,13.97
2023-05-05T18:26:50.483Z,13.89
2023-05-05T18:29:19.357Z,13.82
2023-05-05T18:31:51.999Z,13.77
2023-05-05T18:34:20.795Z,13.73
2023-05-05T18:36:53.121Z,13.69
2023-05-05T18:39:26.265Z,13.63
2023-05-05T18:41:56.862Z,13.58
2023-05-05T18:44:34.965Z,13.54
2023-05-05T18:47:05.562Z,13.49
2023-05-05T18:49:34.085Z,13.41
2023-05-05T18:52:03.230Z,13.31
2023-05-05T18:54:36.238Z,13.23
2023-05-05T18:57:08.871Z,13.14
2023-05-05T18:59:37.437Z,13.05
2023-05-05T19:02:06.649Z,12.96
2023-05-05T19:04:38.174Z,12.86
2023-05-05T19:07:06.428Z,12.76
2023-05-05T19:09:34.894Z,12.67
2023-05-05T19:12:04.174Z,12.58
2023-05-05T19:14:33.544Z,12.50
2023-05-05T19:17:02.394Z,12.45
2023-05-05T19:19:33.810Z,12.39
2023-05-05T19:22:03.061Z,12.35
2023-05-05T19:24:31.952Z,12.31
2023-05-05T19:27:00.245Z,12.24
2023-05-05T19:29:33.786Z,12.20
2023-05-05T19:32:04.430Z,12.16
2023-05-05T19:34:33.941Z,12.12
2023-05-05T19:37:04.337Z,12.07
2023-05-05T19:39:33.207Z,12.01
2023-05-05T19:42:01.210Z,11.96
2023-05-05T19:44:29.344Z,11.93
2023-05-05T19:46:57.623Z,11.89
2023-05-05T19:49:25.704Z,11.86
2023-05-05T19:51:54.537Z,11.83
2023-05-05T19:54:24.529Z,11.81
2023-05-05T19:56:54.556Z,11.79
2023-05-05T19:59:23.746Z,11.77
2023-05-05T20:01:52.202Z,11.76
2023-05-05T20:04:20.466Z,11.74
2023-05-05T20:06:48.557Z,11.72
2023-05-05T20:09:17.489Z,11.68
2023-05-05T20:11:45.460Z,11.66
2023-05-05T20:14:13.564Z,11.63
2023-05-05T20:16:42.030Z,11.61
2023-05-05T20:19:10.039Z,11.59
2023-05-05T20:21:38.093Z,11.58
2023-05-05T20:24:07.191Z,11.55
2023-05-05T20:26:35.159Z,11.52
2023-05-05T20:29:03.230Z,11.49
2023-05-05T20:31:31.356Z,11.47
2023-05-05T20:33:59.399Z,11.44
2023-05-05T20:36:27.652Z,11.46
2023-05-05T20:38:55.851Z,12.17
2023-05-05T20:41:23.820Z,13.08
2023-05-05T20:43:51.834Z,13.66
2023-05-05T20:46:19.978Z,13.37
2023-05-05T20:48:47.989Z,12.81
2023-05-05T20:51:16.157Z,12.39
2023-05-05T20:53:44.181Z,12.10
2023-05-05T20:56:12.186Z,11.87
2023-05-05T20:58:40.229Z,11.66
2023-05-05T21:01:08.241Z,11.51
2023-05-05T21:03:38.763Z,11.35
2023-05-05T21:06:07.118Z,11.22
2023-05-05T21:08:35.162Z,11.11
2023-05-05T21:11:03.256Z,11.04
2023-05-05T21:13:32.478Z,10.98
2023-05-05T21:16:00.398Z,10.92
2023-05-05T21:18:28.450Z,10.95
2023-05-05T21:20:56.600Z,11.68
2023-05-05T21:23:24.810Z,12.57
2023-05-05T21:25:52.845Z,13.17
2023-05-05T21:28:20.956Z,13.20
2023-05-05T21:31:10.168Z,12.60
2023-05-05T21:33:39.088Z,11.98
2023-05-05T21:36:07.311Z,11.59
2023-05-05T21:38:35.439Z,11.24
2023-05-05T21:41:03.801Z,10.98
2023-05-05T21:43:31.825Z,10.80
2023-05-05T21:46:03.459Z,10.66
2023-05-05T21:48:31.553Z,11.04
2023-05-05T21:50:59.658Z,11.86
2023-05-05T21:53:29.250Z,12.54
2023-05-05T21:55:59.493Z,12.77
2023-05-05T21:58:27.726Z,12.17
2023-05-05T22:00:55.838Z,11.60
2023-05-05T22:03:24.353Z,11.19
2023-05-05T22:05:52.491Z,10.89
2023-05-05T22:08:20.634Z,10.68
2023-05-05T22:10:48.616Z,10.49
2023-05-05T22:13:16.693Z,10.34
2023-05-05T22:15:47.158Z,10.21
2023-05-05T22:18:15.929Z,10.11
2023-05-05T22:20:47.129Z,10.59
2023-05-05T22:23:16.271Z,11.48
2023-05-05T22:25:47.295Z,12.19
2023-05-05T22:28:15.410Z,12.70
2023-05-05T22:30:43.635Z,12.56
2023-05-05T22:33:11.873Z,11.98
2023-05-05T22:35:39.874Z,11.47
2023-05-05T22:38:07.984Z,11.10
2023-05-05T22:40:36.279Z,10.81
2023-05-05T22:43:04.434Z,10.58
2023-05-05T22:45:33.067Z,10.35
2023-05-05T22:48:01.045Z,10.17
2023-05-05T22:50:29.255Z,10.03
2023-05-05T22:53:03.541Z,9.94
2023-05-05T22:55:31.742Z,9.82
2023-05-05T22:58:02.607Z,9.72
2023-05-05T23:00:30.649Z,9.65
2023-05-05T23:02:58.740Z,9.61
2023-05-05T23:05:27.020Z,10.17
2023-05-05T23:07:55.188Z,11.08
2023-05-05T23:10:23.194Z,11.79
2023-05-05T23:12:52.011Z,12.30
2023-05-05T23:15:20.063Z,12.66
2023-05-05T23:17:48.116Z,12.98
2023-05-05T23:20:16.322Z,12.73
2023-05-05T23:22:44.488Z,12.00
2023-05-05T23:25:12.907Z,11.43
2023-05-05T23:27:41.384Z,11.01
2023-05-05T23:30:09.834Z,10.68
2023-05-05T23:32:38.048Z,10.44
2023-05-05T23:35:06.895Z,10.25
2023-05-05T23:37:34.894Z,10.08
2023-05-05T23:40:03.011Z,9.93
2023-05-05T23:42:30.950Z,9.79
2023-05-05T23:44:58.864Z,10.15
2023-05-05T23:47:27.001Z,11.03
2023-05-05T23:49:55.026Z,11.74
2023-05-05T23:52:23.052Z,12.22
2023-05-05T23:54:51.085Z,12.53
2023-05-05T23:57:19.158Z,12.22
2023-05-05T23:59:47.127Z,11.51
